createdAt,value
2023-02-26T00:01:34.025Z,101003.13
2023-02-26T00:04:04.147Z,101009.88
2023-02-26T00:06:33.915Z,101008.66
2023-02-26T00:09:03.660Z,101014.97
2023-02-26T00:11:33.281Z,101013.13
2023-02-26T00:14:01.413Z,101021.34
2023-02-26T00:16:32.221Z,101023.38
2023-02-26T00:19:01.995Z,101027.59
2023-02-26T00:21:31.014Z,101026.03
2023-02-26T00:24:00.335Z,101028.00
2023-02-26T00:26:28.640Z,101029.31
2023-02-26T00:28:58.907Z,101033.59
2023-02-26T00:31:27.346Z,101037.69
2023-02-26T00:33:56.760Z,101046.66
2023-02-26T00:36:30.611Z,101043.16
2023-02-26T00:39:08.562Z,101047.13
2023-02-26T00:41:38.780Z,101052.34
2023-02-26T00:44:08.625Z,101058.13
2023-02-26T00:46:45.109Z,101069.88
2023-02-26T00:49:24.787Z,101068.31
2023-02-26T00:51:56.734Z,101075.47
2023-02-26T00:54:26.253Z,101074.84
2023-02-26T00:56:55.519Z,101078.50
2023-02-26T00:59:25.557Z,101071.91
2023-02-26T01:01:54.189Z,101069.41
2023-02-26T01:04:23.896Z,101082.38
2023-02-26T01:06:54.148Z,101074.56
2023-02-26T01:09:26.767Z,101072.59
2023-02-26T01:11:57.211Z,101085.81
2023-02-26T01:14:26.982Z,101079.09
2023-02-26T01:17:03.620Z,101078.34
2023-02-26T01:19:42.494Z,101073.22
2023-02-26T01:22:16.367Z,101077.47
2023-02-26T01:24:44.487Z,101088.47
2023-02-26T01:27:12.612Z,101088.16
2023-02-26T01:29:42.003Z,101088.34
2023-02-26T01:32:17.126Z,101090.09
2023-02-26T01:34:54.045Z,101094.44
2023-02-26T01:37:27.207Z,101086.47
2023-02-26T01:40:17.811Z,101096.88
2023-02-26T01:42:51.805Z,101107.41
2023-02-26T01:45:32.227Z,101112.72
2023-02-26T01:48:05.686Z,101105.50
2023-02-26T01:50:36.858Z,101115.44
2023-02-26T01:53:19.639Z,101113.63
2023-02-26T01:55:51.592Z,101113.94
2023-02-26T01:58:22.352Z,101118.75
2023-02-26T02:00:52.096Z,101120.56
2023-02-26T02:03:21.824Z,101135.03
2023-02-26T02:05:52.954Z,101145.31
2023-02-26T02:08:22.037Z,101134.13
2023-02-26T02:10:52.258Z,101153.50
2023-02-26T02:13:51.798Z,101145.81
2023-02-26T02:16:33.150Z,101152.69
2023-02-26T02:19:19.574Z,101152.63
2023-02-26T02:22:03.236Z,101168.91
2023-02-26T02:24:47.119Z,101172.91
2023-02-26T02:27:20.738Z,101173.03
2023-02-26T02:30:26.422Z,101173.88
2023-02-26T02:33:00.149Z,101169.88
2023-02-26T02:35:33.505Z,101185.59
2023-02-26T02:38:09.373Z,101174.34
2023-02-26T02:40:41.411Z,101185.75
2023-02-26T02:43:14.082Z,101182.69
2023-02-26T02:45:44.781Z,101192.22
2023-02-26T02:48:19.873Z,101188.31
2023-02-26T02:50:52.401Z,101190.22
2023-02-26T02:53:25.376Z,101192.81
2023-02-26T02:55:58.552Z,101193.75
2023-02-26T02:58:31.412Z,101199.03
2023-02-26T03:01:03.804Z,101191.75
2023-02-26T03:03:39.255Z,101191.56
2023-02-26T03:06:07.613Z,101194.88
2023-02-26T03:08:40.413Z,101210.63
2023-02-26T03:11:10.299Z,101206.78
2023-02-26T03:13:40.274Z,101211.41
2023-02-26T03:16:31.293Z,101219.00
2023-02-26T03:19:07.623Z,101223.00
2023-02-26T03:21:46.626Z,101211.63
2023-02-26T03:24:29.692Z,101223.13
2023-02-26T03:27:01.836Z,101224.94
2023-02-26T03:29:39.291Z,101231.72
2023-02-26T03:32:12.132Z,101236.72
2023-02-26T03:34:46.966Z,101232.97
2023-02-26T03:37:22.099Z,101240.78
2023-02-26T03:39:53.420Z,101243.31
2023-02-26T03:42:27.679Z,101249.16
2023-02-26T03:45:03.556Z,101248.16
2023-02-26T03:47:32.823Z,101255.31
2023-02-26T03:50:07.607Z,101260.13
2023-02-26T03:52:49.773Z,101255.81
2023-02-26T03:55:46.488Z,101270.19
2023-02-26T03:58:26.450Z,101265.47
2023-02-26T04:01:26.573Z,101277.47
2023-02-26T04:03:59.030Z,101273.84
2023-02-26T04:06:29.168Z,101284.94
2023-02-26T04:08:58.068Z,101284.69
2023-02-26T04:11:26.623Z,101291.69
2023-02-26T04:13:54.371Z,101288.56
2023-02-26T04:16:22.516Z,101293.84
2023-02-26T04:18:50.373Z,101296.22
2023-02-26T04:21:20.626Z,101297.25
2023-02-26T04:23:50.332Z,101313.31
2023-02-26T04:26:18.280Z,101312.00
2023-02-26T04:28:47.200Z,101312.97
2023-02-26T04:31:15.576Z,101313.50
2023-02-26T04:33:43.596Z,101318.53
2023-02-26T04:36:11.485Z,101324.28
2023-02-26T04:38:39.655Z,101323.66
2023-02-26T04:41:08.936Z,101325.72
2023-02-26T04:43:37.635Z,101330.94
2023-02-26T04:46:27.598Z,101333.41
2023-02-26T04:48:56.272Z,101332.69
2023-02-26T04:51:24.785Z,101337.38
2023-02-26T04:53:53.596Z,101342.97
2023-02-26T04:56:23.036Z,101349.16
2023-02-26T04:58:51.039Z,101351.44
2023-02-26T05:01:24.359Z,101352.28
2023-02-26T05:03:52.142Z,101367.47
2023-02-26T05:06:21.030Z,101359.44
2023-02-26T05:08:48.758Z,101363.72
2023-02-26T05:11:16.545Z,101372.97
2023-02-26T05:13:45.796Z,101372.88
2023-02-26T05:16:14.121Z,101362.88
2023-02-26T05:18:42.615Z,101372.69
2023-02-26T05:21:10.942Z,101387.19
2023-02-26T05:23:39.232Z,101387.53
2023-02-26T05:26:07.021Z,101384.63
2023-02-26T05:28:36.562Z,101383.63
2023-02-26T05:31:06.623Z,101390.19
2023-02-26T05:33:34.518Z,101404.81
2023-02-26T05:36:02.270Z,101407.72
2023-02-26T05:38:30.016Z,101413.84
2023-02-26T05:40:59.232Z,101420.47
2023-02-26T05:43:27.945Z,101431.22
2023-02-26T05:45:56.068Z,101433.53
2023-02-26T05:48:25.280Z,101427.28
2023-02-26T05:50:53.014Z,101442.69
2023-02-26T05:53:21.119Z,101443.41
2023-02-26T05:55:49.092Z,101440.88
2023-02-26T05:58:17.335Z,101444.53
2023-02-26T06:00:45.059Z,101452.44
2023-02-26T06:03:12.835Z,101448.06
2023-02-26T06:05:42.009Z,101454.72
2023-02-26T06:08:12.072Z,101458.84
2023-02-26T06:10:39.903Z,101459.16
2023-02-26T06:13:07.801Z,101463.28
2023-02-26T06:15:35.600Z,101468.28
2023-02-26T06:18:03.390Z,101472.03
2023-02-26T06:20:31.156Z,101488.97
2023-02-26T06:23:00.267Z,101482.53
2023-02-26T06:25:28.041Z,101488.50
2023-02-26T06:27:55.758Z,101491.94
2023-02-26T06:30:23.804Z,101492.13
2023-02-26T06:32:51.653Z,101494.88
2023-02-26T06:35:19.353Z,101499.38
2023-02-26T06:37:47.222Z,101506.25
2023-02-26T06:40:17.616Z,101510.94
2023-02-26T06:42:45.404Z,101513.44
2023-02-26T06:45:13.214Z,101518.06
2023-02-26T06:47:41.230Z,101516.09
2023-02-26T06:50:10.565Z,101524.78
2023-02-26T06:52:38.385Z,101522.47
2023-02-26T06:55:07.224Z,101533.63
2023-02-26T06:57:36.349Z,101535.94
2023-02-26T07:00:05.874Z,101538.47
2023-02-26T07:02:34.201Z,101543.66
2023-02-26T07:05:01.955Z,101558.88
2023-02-26T07:07:29.788Z,101556.16
2023-02-26T07:09:57.649Z,101553.84
2023-02-26T07:12:25.644Z,101565.28
2023-02-26T07:14:54.768Z,101572.78
2023-02-26T07:17:22.589Z,101577.91
2023-02-26T07:19:51.256Z,101585.06
2023-02-26T07:22:22.101Z,101585.41
2023-02-26T07:24:51.197Z,101585.25
2023-02-26T07:27:19.472Z,101590.28
2023-02-26T07:29:47.234Z,101588.94
2023-02-26T07:32:16.353Z,101598.28
2023-02-26T07:34:44.218Z,101598.63
2023-02-26T07:37:12.020Z,101602.53
2023-02-26T07:39:39.899Z,101602.03
2023-02-26T07:42:07.785Z,101611.63
2023-02-26T07:44:35.594Z,101618.75
2023-02-26T07:47:03.413Z,101617.19
2023-02-26T07:49:34.177Z,101626.19
2023-02-26T07:52:02.045Z,101622.03
2023-02-26T07:54:30.031Z,101630.28
2023-02-26T07:56:57.766Z,101642.03
2023-02-26T07:59:25.597Z,101636.31
2023-02-26T08:01:53.425Z,101644.31
2023-02-26T08:04:21.363Z,101646.56
2023-02-26T08:06:50.471Z,101658.06
2023-02-26T08:09:19.081Z,101656.81
2023-02-26T08:11:47.862Z,101659.59
2023-02-26T08:14:15.877Z,101661.28
2023-02-26T08:16:45.350Z,101664.44
2023-02-26T08:19:13.359Z,101660.66
2023-02-26T08:21:41.258Z,101659.84
2023-02-26T08:24:12.194Z,101668.25
2023-02-26T08:26:40.061Z,101676.44
2023-02-26T08:29:08.053Z,101681.06
2023-02-26T08:31:36.198Z,101689.78
2023-02-26T08:34:04.352Z,101685.31
2023-02-26T08:36:32.267Z,101696.53
2023-02-26T08:39:01.156Z,101705.13
2023-02-26T08:41:32.349Z,101704.22
2023-02-26T08:44:01.232Z,101703.78
2023-02-26T08:46:29.763Z,101702.31
2023-02-26T08:48:57.960Z,101705.53
2023-02-26T08:51:26.571Z,101713.06
2023-02-26T08:53:54.805Z,101707.06
2023-02-26T08:56:22.983Z,101711.56
2023-02-26T08:58:53.752Z,101716.25
2023-02-26T09:01:21.857Z,101726.09
2023-02-26T09:03:49.956Z,101723.28
2023-02-26T09:06:17.936Z,101729.97
2023-02-26T09:08:46.537Z,101734.47
2023-02-26T09:11:14.595Z,101734.34
2023-02-26T09:13:42.805Z,101736.22
2023-02-26T09:16:12.325Z,101742.16
2023-02-26T09:18:40.581Z,101729.00
2023-02-26T09:21:08.858Z,101744.72
2023-02-26T09:23:37.073Z,101740.31
2023-02-26T09:26:05.785Z,101742.84
2023-02-26T09:28:33.751Z,101734.81
2023-02-26T09:31:01.785Z,101747.41
2023-02-26T09:33:31.921Z,101751.78
2023-02-26T09:36:04.177Z,101736.38
2023-02-26T09:38:32.433Z,101751.69
2023-02-26T09:41:04.908Z,101749.00
2023-02-26T09:43:50.820Z,101752.25
2023-02-26T09:46:32.034Z,101751.47
2023-02-26T09:49:09.000Z,101759.47
2023-02-26T09:51:37.819Z,101753.16
2023-02-26T09:54:16.161Z,101753.81
2023-02-26T09:56:45.693Z,101761.25
2023-02-26T09:59:14.119Z,101756.56
2023-02-26T10:01:49.761Z,101765.50
2023-02-26T10:04:39.218Z,101759.56
2023-02-26T10:07:18.309Z,101766.59
2023-02-26T10:10:05.675Z,101779.09
2023-02-26T10:12:37.109Z,101781.41
2023-02-26T10:15:09.566Z,101777.88
2023-02-26T10:17:46.735Z,101778.94
2023-02-26T10:20:21.142Z,101783.59
2023-02-26T10:22:59.217Z,101787.09
2023-02-26T10:25:34.083Z,101799.44
2023-02-26T10:28:15.774Z,101792.88
2023-02-26T10:30:47.427Z,101786.69
2023-02-26T10:33:21.775Z,101797.94
2023-02-26T10:35:55.074Z,101789.72
2023-02-26T10:38:26.860Z,101803.56
2023-02-26T10:41:01.880Z,101803.31
2023-02-26T10:43:34.466Z,101798.31
2023-02-26T10:46:17.344Z,101802.50
2023-02-26T10:48:56.395Z,101796.75
2023-02-26T10:51:30.242Z,101803.00
2023-02-26T10:54:02.144Z,101795.25
2023-02-26T10:56:32.738Z,101799.78
2023-02-26T10:59:01.095Z,101806.09
2023-02-26T11:01:31.867Z,101805.19
2023-02-26T11:04:02.984Z,101803.03
2023-02-26T11:06:35.829Z,101803.06
2023-02-26T11:09:06.288Z,101812.59
2023-02-26T11:11:42.352Z,101806.78
2023-02-26T11:14:10.689Z,101803.94
2023-02-26T11:16:47.040Z,101813.25
2023-02-26T11:19:17.308Z,101810.63
2023-02-26T11:21:48.737Z,101811.38
2023-02-26T11:24:22.379Z,101816.06
2023-02-26T11:26:51.854Z,101816.03
2023-02-26T11:29:22.367Z,101824.66
2023-02-26T11:31:52.685Z,101821.88
2023-02-26T11:34:24.599Z,101822.16
2023-02-26T11:36:57.070Z,101825.63
2023-02-26T11:39:27.026Z,101818.13
2023-02-26T11:41:58.489Z,101821.69
2023-02-26T11:44:36.179Z,101824.00
2023-02-26T11:47:07.130Z,101821.22
2023-02-26T11:49:35.356Z,101826.59
2023-02-26T11:52:16.105Z,101828.84
2023-02-26T11:54:46.407Z,101822.06
2023-02-26T11:57:18.717Z,101820.22
2023-02-26T11:59:50.576Z,101824.25
2023-02-26T12:02:21.951Z,101829.09
2023-02-26T12:04:53.356Z,101819.81
2023-02-26T12:07:23.578Z,101834.28
2023-02-26T12:09:51.472Z,101830.91
2023-02-26T12:12:36.394Z,101828.28
2023-02-26T12:15:18.637Z,101822.81
2023-02-26T12:17:57.712Z,101820.06
2023-02-26T12:20:30.579Z,101820.84
2023-02-26T12:23:14.147Z,101823.47
2023-02-26T12:26:01.138Z,101814.47
2023-02-26T12:28:52.793Z,101823.88
2023-02-26T12:32:05.235Z,101827.78
2023-02-26T12:34:53.222Z,101818.47
2023-02-26T12:37:37.009Z,101816.06
2023-02-26T12:40:20.706Z,101811.66
2023-02-26T12:42:58.691Z,101812.16
2023-02-26T12:45:40.768Z,101817.44
2023-02-26T12:48:39.261Z,101827.63
2023-02-26T12:51:16.397Z,101819.28
2023-02-26T12:54:05.146Z,101819.13
2023-02-26T12:57:10.532Z,101822.28
2023-02-26T13:00:06.337Z,101820.53
2023-02-26T13:03:04.911Z,101817.59
2023-02-26T13:05:49.704Z,101828.88
2023-02-26T13:08:25.109Z,101824.69
2023-02-26T13:11:06.136Z,101810.19
2023-02-26T13:13:54.463Z,101804.31
2023-02-26T13:16:34.237Z,101801.88
2023-02-26T13:19:11.646Z,101811.47
2023-02-26T13:21:44.030Z,101811.66
2023-02-26T13:24:16.334Z,101810.47
2023-02-26T13:26:46.054Z,101809.34
2023-02-26T13:29:20.714Z,101809.09
2023-02-26T13:31:53.889Z,101816.94
2023-02-26T13:34:36.986Z,101815.63
2023-02-26T13:37:06.452Z,101820.16
2023-02-26T13:39:43.245Z,101805.09
2023-02-26T13:42:25.392Z,101814.59
2023-02-26T13:45:08.887Z,101802.81
2023-02-26T13:47:50.318Z,101806.16
2023-02-26T13:50:32.225Z,101811.97
2023-02-26T13:53:04.425Z,101799.25
2023-02-26T13:55:54.480Z,101812.72
2023-02-26T13:58:35.121Z,101808.25
2023-02-26T14:01:16.563Z,101809.91
2023-02-26T14:03:48.874Z,101808.75
2023-02-26T14:06:42.108Z,101805.09
2023-02-26T14:09:38.311Z,101801.59
2023-02-26T14:12:25.519Z,101815.72
2023-02-26T14:15:22.785Z,101806.00
2023-02-26T14:17:52.840Z,101809.53
2023-02-26T14:20:24.477Z,101799.19
2023-02-26T14:23:13.710Z,101808.38
2023-02-26T14:25:43.546Z,101804.72
2023-02-26T14:28:35.883Z,101801.13
2023-02-26T14:31:17.540Z,101807.34
2023-02-26T14:33:58.512Z,101807.28
2023-02-26T14:36:36.719Z,101815.81
2023-02-26T14:39:11.819Z,101821.09
2023-02-26T14:41:44.914Z,101813.59
2023-02-26T14:44:20.949Z,101803.84
2023-02-26T14:46:51.331Z,101814.94
2023-02-26T14:49:26.034Z,101821.66
2023-02-26T14:52:17.334Z,101811.41
2023-02-26T14:54:58.482Z,101808.97
2023-02-26T14:57:34.814Z,101815.88
2023-02-26T15:00:20.157Z,101814.97
2023-02-26T15:03:05.956Z,101814.41
2023-02-26T15:05:54.051Z,101824.66
2023-02-26T15:08:40.763Z,101825.50
2023-02-26T15:11:33.860Z,101818.59
2023-02-26T15:14:27.617Z,101826.19
2023-02-26T15:17:07.404Z,101822.03
2023-02-26T15:19:51.332Z,101818.59
2023-02-26T15:22:36.080Z,101829.84
2023-02-26T15:25:04.161Z,101826.28
2023-02-26T15:27:34.778Z,101838.38
2023-02-26T15:30:02.784Z,101831.75
2023-02-26T15:32:32.529Z,101819.69
2023-02-26T15:35:02.555Z,101832.88
2023-02-26T15:37:33.710Z,101829.22
2023-02-26T15:40:05.126Z,101828.41
2023-02-26T15:42:38.300Z,101837.09
2023-02-26T15:45:14.045Z,101833.56
2023-02-26T15:47:42.340Z,101838.16
2023-02-26T15:50:19.652Z,101833.75
2023-02-26T15:52:55.919Z,101832.50
2023-02-26T15:55:24.116Z,101849.25
2023-02-26T15:57:52.374Z,101855.84
2023-02-26T16:00:25.392Z,101845.22
2023-02-26T16:02:57.154Z,101852.25
2023-02-26T16:05:30.290Z,101847.41
2023-02-26T16:07:59.540Z,101850.72
2023-02-26T16:10:38.109Z,101856.84
2023-02-26T16:13:08.585Z,101858.50
2023-02-26T16:15:39.920Z,101859.38
2023-02-26T16:18:11.078Z,101863.06
2023-02-26T16:20:42.957Z,101869.16
2023-02-26T16:23:15.456Z,101858.97
2023-02-26T16:25:51.405Z,101858.16
2023-02-26T16:28:23.143Z,101868.59
2023-02-26T16:30:54.468Z,101870.59
2023-02-26T16:33:24.844Z,101871.94
2023-02-26T16:35:56.650Z,101875.53
2023-02-26T16:38:32.194Z,101881.06
2023-02-26T16:41:03.676Z,101885.88
2023-02-26T16:43:36.896Z,101884.88
2023-02-26T16:46:06.643Z,101884.38
2023-02-26T16:48:41.262Z,101893.25
2023-02-26T16:51:13.983Z,101900.88
2023-02-26T16:53:47.499Z,101898.63
2023-02-26T16:56:19.436Z,101914.38
2023-02-26T16:58:50.022Z,101908.38
2023-02-26T17:01:19.838Z,101920.25
2023-02-26T17:03:50.739Z,101923.63
2023-02-26T17:06:20.420Z,101921.75
2023-02-26T17:08:52.578Z,101921.88
2023-02-26T17:11:25.689Z,101933.97
2023-02-26T17:14:09.683Z,101933.19
2023-02-26T17:16:37.597Z,101935.00
2023-02-26T17:19:09.545Z,101939.50
2023-02-26T17:21:42.258Z,101944.63
2023-02-26T17:24:18.219Z,101951.75
2023-02-26T17:26:47.813Z,101955.88
2023-02-26T17:29:23.026Z,101953.38
2023-02-26T17:31:51.198Z,101953.50
2023-02-26T17:34:19.722Z,101955.94
2023-02-26T17:36:47.848Z,101951.72
2023-02-26T17:39:17.195Z,101958.09
2023-02-26T17:41:46.446Z,101952.19
2023-02-26T17:44:14.172Z,101966.53
2023-02-26T17:46:41.976Z,101963.44
2023-02-26T17:49:11.968Z,101964.91
2023-02-26T17:51:39.762Z,101968.03
2023-02-26T17:54:08.298Z,101979.41
2023-02-26T17:56:40.046Z,101971.13
2023-02-26T17:59:07.823Z,101979.75
2023-02-26T18:01:35.716Z,101984.81
2023-02-26T18:04:03.722Z,101986.22
2023-02-26T18:06:34.726Z,101990.31
2023-02-26T18:09:04.404Z,101998.63
2023-02-26T18:11:33.592Z,101991.69
2023-02-26T18:14:03.140Z,101998.75
2023-02-26T18:16:34.257Z,102001.25
2023-02-26T18:19:03.009Z,101999.78
2023-02-26T18:21:31.469Z,102006.31
2023-02-26T18:24:01.096Z,101992.00
2023-02-26T18:26:32.388Z,102000.28
2023-02-26T18:29:02.125Z,102003.66
2023-02-26T18:31:34.932Z,102009.16
2023-02-26T18:34:03.191Z,102002.09
2023-02-26T18:36:37.526Z,102007.06
2023-02-26T18:39:07.964Z,102008.56
2023-02-26T18:41:36.268Z,102004.22
2023-02-26T18:44:05.597Z,102010.03
2023-02-26T18:46:34.770Z,102015.44
2023-02-26T18:49:02.799Z,102007.41
2023-02-26T18:51:31.016Z,102009.63
2023-02-26T18:53:59.055Z,102008.25
2023-02-26T18:56:26.858Z,102007.69
2023-02-26T18:58:54.748Z,102006.53
2023-02-26T19:01:24.593Z,102017.06
2023-02-26T19:03:53.607Z,102013.66
2023-02-26T19:06:21.520Z,102012.84
2023-02-26T19:08:49.402Z,102013.38
2023-02-26T19:11:17.233Z,102020.97
2023-02-26T19:13:45.395Z,102019.72
2023-02-26T19:16:13.407Z,102022.63
2023-02-26T19:18:42.859Z,102030.03
2023-02-26T19:21:10.986Z,102028.97
2023-02-26T19:23:38.695Z,102031.00
2023-02-26T19:26:06.663Z,102034.34
2023-02-26T19:28:34.556Z,102038.94
2023-02-26T19:31:02.436Z,102038.22
2023-02-26T19:33:30.355Z,102045.69
2023-02-26T19:35:59.548Z,102043.91
2023-02-26T19:38:27.593Z,102048.66
2023-02-26T19:40:55.584Z,102051.34
2023-02-26T19:43:23.649Z,102055.06
2023-02-26T19:45:51.496Z,102054.34
2023-02-26T19:48:21.117Z,102058.97
2023-02-26T19:50:51.207Z,102058.84
2023-02-26T19:53:20.490Z,102068.31
2023-02-26T19:55:50.015Z,102057.84
2023-02-26T19:58:19.493Z,102069.13
2023-02-26T20:00:47.435Z,102066.41
2023-02-26T20:03:15.290Z,102068.06
2023-02-26T20:05:43.806Z,102076.75
2023-02-26T20:08:11.648Z,102077.59
2023-02-26T20:10:41.592Z,102072.97
2023-02-26T20:13:09.468Z,102084.72
2023-02-26T20:15:37.332Z,102087.72
2023-02-26T20:18:05.340Z,102090.78
2023-02-26T20:20:33.197Z,102091.75
2023-02-26T20:23:01.420Z,102085.94
2023-02-26T20:25:29.540Z,102098.22
2023-02-26T20:27:58.870Z,102098.66
2023-02-26T20:30:27.753Z,102096.19
2023-02-26T20:32:55.921Z,102097.94
2023-02-26T20:35:25.174Z,102095.72
2023-02-26T20:37:53.205Z,102106.47
2023-02-26T20:40:21.440Z,102114.56
2023-02-26T20:42:49.339Z,102124.50
2023-02-26T20:45:19.039Z,102129.78
2023-02-26T20:47:47.144Z,102129.00
2023-02-26T20:50:15.275Z,102130.31
2023-02-26T20:52:43.469Z,102123.78
2023-02-26T20:55:11.421Z,102122.81
2023-02-26T20:57:39.492Z,102127.25
2023-02-26T21:00:11.456Z,102133.47
2023-02-26T21:02:41.257Z,102134.47
2023-02-26T21:05:10.671Z,102139.88
2023-02-26T21:07:39.406Z,102140.19
2023-02-26T21:10:08.270Z,102135.53
2023-02-26T21:12:36.244Z,102141.84
2023-02-26T21:15:05.205Z,102141.44
2023-02-26T21:17:33.406Z,102145.88
2023-02-26T21:20:02.894Z,102144.41
2023-02-26T21:22:30.779Z,102143.16
2023-02-26T21:24:58.736Z,102143.94
2023-02-26T21:27:26.799Z,102143.59
2023-02-26T21:29:54.736Z,102157.31
2023-02-26T21:32:22.829Z,102155.53
2023-02-26T21:34:50.814Z,102154.47
2023-02-26T21:37:20.046Z,102161.19
2023-02-26T21:39:48.149Z,102159.38
2023-02-26T21:42:15.980Z,102165.59
2023-02-26T21:44:44.241Z,102160.28
2023-02-26T21:47:12.581Z,102164.50
2023-02-26T21:49:40.454Z,102165.41
2023-02-26T21:52:09.286Z,102160.66
2023-02-26T21:54:38.661Z,102160.44
2023-02-26T21:57:10.893Z,102165.84
2023-02-26T21:59:38.807Z,102168.06
2023-02-26T22:02:06.685Z,102171.44
2023-02-26T22:04:34.961Z,102171.44
2023-02-26T22:07:03.002Z,102172.19
2023-02-26T22:09:30.979Z,102174.75
2023-02-26T22:12:00.158Z,102169.59
2023-02-26T22:14:28.272Z,102167.66
2023-02-26T22:16:56.129Z,102160.66
2023-02-26T22:19:23.932Z,102173.94
2023-02-26T22:21:51.830Z,102177.91
2023-02-26T22:24:19.746Z,102172.94
2023-02-26T22:26:49.259Z,102177.31
2023-02-26T22:29:19.468Z,102174.84
2023-02-26T22:31:48.622Z,102177.69
2023-02-26T22:34:16.958Z,102179.78
2023-02-26T22:36:45.157Z,102175.69
2023-02-26T22:39:13.482Z,102187.97
2023-02-26T22:41:41.772Z,102182.00
2023-02-26T22:44:09.753Z,102188.31
2023-02-26T22:46:39.002Z,102190.41
2023-02-26T22:49:07.299Z,102194.59
2023-02-26T22:51:35.093Z,102188.09
2023-02-26T22:54:03.887Z,102202.56
2023-02-26T22:56:32.348Z,102194.34
2023-02-26T22:59:00.350Z,102200.19
2023-02-26T23:01:29.828Z,102193.66
2023-02-26T23:03:59.628Z,102197.69
2023-02-26T23:06:27.759Z,102203.22
2023-02-26T23:08:55.646Z,102202.88
2023-02-26T23:11:23.499Z,102203.19
2023-02-26T23:13:51.839Z,102208.28
2023-02-26T23:16:19.746Z,102215.09
2023-02-26T23:18:48.124Z,102206.38
2023-02-26T23:21:17.516Z,102212.34
2023-02-26T23:23:45.553Z,102214.56
2023-02-26T23:26:13.915Z,102216.78
2023-02-26T23:28:41.963Z,102220.28
2023-02-26T23:31:10.006Z,102210.16
2023-02-26T23:33:37.973Z,102212.69
2023-02-26T23:36:06.596Z,102212.34
2023-02-26T23:38:36.043Z,102216.66
2023-02-26T23:41:04.099Z,102218.06
2023-02-26T23:43:31.979Z,102221.66
2023-02-26T23:45:59.853Z,102220.06
2023-02-26T23:48:28.331Z,102218.63
2023-02-26T23:50:56.509Z,102226.16
2023-02-26T23:53:24.555Z,102223.25
2023-02-26T23:55:58.307Z,102222.75
2023-02-26T23:58:26.656Z,102223.47
